Time;durP1;ratioP1;P1;durP2;ratioP2;P2;SDS_P1;SDS_P2;PMS_P1;PMS_P2;Temp;Humidity;BMP_temperature;BMP_pressure;BME280_temperature;BME280_humidity;BME280_pressure;Samples;Min_cycle;Max_cycle;Signal;HPM_P1;HPM_P2
2022/09/05 00:01:45;;;;;;;6.78;5.00;;;;;;;18.17;64.51;101810.28;4936918;29;20043;-77
2022/09/05 00:04:26;;;;;;;7.18;5.10;;;;;;;18.24;64.38;101811.38;4944492;28;20094;-77
2022/09/05 00:07:09;;;;;;;7.15;4.75;;;;;;;18.24;63.90;101811.38;4939637;28;20043;-77
2022/09/05 00:09:40;;;;;;;6.60;5.15;;;;;;;18.24;64.12;101811.38;4932640;29;20106;-77
2022/09/05 00:12:09;;;;;;;7.70;5.45;;;;;;;18.18;64.11;101796.19;4947556;28;20071;-77
2022/09/05 00:15:11;;;;;;;7.18;5.20;;;;;;;18.27;63.94;101805.78;4997438;28;20034;-77
2022/09/05 00:17:57;;;;;;;6.30;4.93;;;;;;;18.23;64.13;101799.19;4978213;28;20036;-77
2022/09/05 00:20:43;;;;;;;7.85;5.10;;;;;;;18.09;64.35;101797.09;5007126;28;20045;-77
2022/09/05 00:23:44;;;;;;;7.00;5.40;;;;;;;18.24;63.31;101791.19;5028638;28;20025;-76
2022/09/05 00:26:43;;;;;;;7.25;5.40;;;;;;;18.07;64.58;101788.56;4957135;28;20125;-76
2022/09/05 00:29:38;;;;;;;8.18;5.50;;;;;;;18.15;64.11;101793.88;4959882;28;20117;-76
2022/09/05 00:32:12;;;;;;;7.80;5.60;;;;;;;18.07;64.69;101799.06;4955102;28;20039;-77
2022/09/05 00:35:11;;;;;;;7.72;5.68;;;;;;;18.04;64.71;101789.69;4960328;28;20110;-77
2022/09/05 00:37:43;;;;;;;7.38;5.75;;;;;;;17.95;65.56;101782.69;4957024;28;20146;-77
2022/09/05 00:40:18;;;;;;;7.88;6.07;;;;;;;17.97;65.91;101786.84;4961892;28;20039;-77
2022/09/05 00:42:46;;;;;;;8.02;5.75;;;;;;;17.95;66.15;101794.03;4946249;28;20083;-77
2022/09/05 00:45:15;;;;;;;;;;;;;;;18.25;63.98;101792.00;4966283;28;20030;-77
2022/09/05 00:47:46;;;;;;;9.40;6.32;;;;;;;17.97;66.29;101786.84;4964971;28;19914;-76
2022/09/05 00:50:26;;;;;;;8.55;7.07;;;;;;;17.83;67.05;101782.09;4965922;28;20046;-76
2022/09/05 00:53:10;;;;;;;9.82;6.85;;;;;;;17.93;66.79;101785.47;4964885;28;20079;-76
2022/09/05 00:55:57;;;;;;;9.02;6.55;;;;;;;17.80;67.44;101795.53;4964225;28;20474;-77
2022/09/05 00:58:50;;;;;;;9.05;5.95;;;;;;;17.76;67.73;101786.28;4957558;28;20031;-77
2022/09/05 01:01:30;;;;;;;8.82;6.65;;;;;;;17.86;66.98;101781.81;4977474;28;20049;-76
2022/09/05 01:03:59;;;;;;;8.80;6.50;;;;;;;17.65;67.90;101783.84;5043634;28;20032;-77
2022/09/05 01:06:49;;;;;;;8.88;5.93;;;;;;;17.72;66.51;101779.69;5043309;28;20025;-76
2022/09/05 01:09:28;;;;;;;7.13;6.18;;;;;;;17.69;67.70;101788.66;5040996;28;20071;-77
2022/09/05 01:12:17;;;;;;;8.18;6.82;;;;;;;17.68;67.02;101794.06;5046652;28;20040;-76
2022/09/05 01:15:10;;;;;;;8.07;6.35;;;;;;;17.65;67.26;101794.34;5046513;28;20050;-77
2022/09/05 01:17:51;;;;;;;8.48;6.30;;;;;;;17.67;67.14;101792.41;5036876;28;20060;-76
2022/09/05 01:20:19;;;;;;;8.10;6.00;;;;;;;17.66;66.66;101790.72;5029755;28;20378;-76
2022/09/05 01:23:06;;;;;;;8.55;6.43;;;;;;;17.63;67.11;101791.03;5050201;28;20062;-76
2022/09/05 01:25:56;;;;;;;8.00;6.80;;;;;;;17.57;66.82;101796.88;5044681;28;20108;-77
2022/09/05 01:28:49;;;;;;;8.15;6.40;;;;;;;17.49;67.42;101785.34;5049660;28;20102;-76
2022/09/05 01:31:40;;;;;;;8.52;6.63;;;;;;;17.67;66.18;101792.41;5048183;28;20037;-76
2022/09/05 01:34:28;;;;;;;8.50;6.75;;;;;;;17.65;66.86;101794.34;5050035;28;20033;-76
2022/09/05 01:37:21;;;;;;;10.05;6.78;;;;;;;17.66;66.20;101790.72;5037642;28;20350;-77
2022/09/05 01:40:19;;;;;;;8.43;6.70;;;;;;;17.56;66.73;101784.75;5048256;28;20025;-76
2022/09/05 01:43:22;;;;;;;8.27;6.50;;;;;;;17.50;67.32;101786.97;5005510;28;20043;-77
2022/09/05 01:46:29;;;;;;;8.07;6.40;;;;;;;17.59;66.71;101789.69;5031741;28;20128;-76
2022/09/05 01:49:26;;;;;;;9.30;6.70;;;;;;;17.36;67.61;101784.00;5050129;28;20028;-76
2022/09/05 01:51:53;;;;;;;8.98;7.07;;;;;;;17.38;67.38;101782.91;5049514;28;20051;-76
2022/09/05 01:54:43;;;;;;;8.10;7.15;;;;;;;17.45;66.98;101789.22;5049387;28;20033;-77
2022/09/05 01:57:26;;;;;;;8.05;7.05;;;;;;;17.44;67.29;101782.31;5049833;28;20033;-76
2022/09/05 01:59:55;;;;;;;8.90;7.18;;;;;;;17.42;67.67;101783.44;5050344;28;20021;-77
2022/09/05 02:02:42;;;;;;;9.05;7.00;;;;;;;17.38;67.86;101787.34;5049129;28;20504;-76
2022/09/05 02:05:23;;;;;;;9.65;7.63;;;;;;;17.42;67.50;101786.88;5031490;28;20032;-77
2022/09/05 02:08:09;;;;;;;8.68;7.40;;;;;;;17.37;67.54;101786.47;5041751;28;20029;-76
2022/09/05 02:11:02;;;;;;;10.57;7.80;;;;;;;17.32;67.51;101773.00;5043054;28;20067;-77
2022/09/05 02:13:34;;;;;;;8.68;7.60;;;;;;;17.20;68.29;101789.88;5049276;28;20072;-77
2022/09/05 02:16:17;;;;;;;9.88;7.63;;;;;;;17.15;68.02;101781.66;5031914;28;20415;-77
2022/09/05 02:19:13;;;;;;;10.90;8.38;;;;;;;17.18;67.88;101786.59;5046729;28;20033;-77
2022/09/05 02:21:58;;;;;;;9.10;8.20;;;;;;;17.23;67.42;101789.59;5047872;28;20032;-77
2022/09/05 02:24:35;;;;;;;10.48;8.60;;;;;;;17.11;68.25;101783.72;5048617;28;20028;-76
2022/09/05 02:27:15;;;;;;;9.60;8.55;;;;;;;17.09;67.90;101793.53;5049314;28;20033;-76
2022/09/05 02:30:16;;;;;;;10.00;9.00;;;;;;;17.17;67.61;101790.19;5049418;28;20032;-76
2022/09/05 02:33:12;;;;;;;10.57;8.93;;;;;;;17.05;67.98;101786.09;4995582;28;20040;-76
2022/09/05 02:35:59;;;;;;;10.10;8.90;;;;;;;16.96;68.21;101783.34;5048669;28;20035;-77
2022/09/05 02:38:53;;;;;;;10.35;9.05;;;;;;;17.01;68.26;101779.47;5049263;28;20119;-76
2022/09/05 02:41:31;;;;;;;10.18;9.18;;;;;;;16.95;68.36;101786.94;5029275;28;20028;-76
2022/09/05 02:44:04;;;;;;;10.45;8.98;;;;;;;16.94;68.65;101789.72;5048690;28;20082;-76
2022/09/05 02:46:58;;;;;;;10.48;8.90;;;;;;;16.93;68.74;101794.13;5049343;28;20020;-76
2022/09/05 02:49:41;;;;;;;10.15;9.15;;;;;;;17.07;68.35;101784.16;5045611;28;20116;-77
2022/09/05 02:52:10;;;;;;;10.38;9.30;;;;;;;17.07;68.25;101789.38;5048936;28;20040;-76
2022/09/05 02:54:41;;;;;;;10.20;9.20;;;;;;;17.03;68.03;101767.03;5030474;28;20039;-76
2022/09/05 02:57:42;;;;;;;10.73;9.68;;;;;;;17.21;67.42;101786.31;5029667;28;20075;-77
2022/09/05 03:00:16;;;;;;;11.75;9.80;;;;;;;17.17;67.57;101779.69;5022241;28;20060;-76
2022/09/05 03:03:00;;;;;;;10.93;9.82;;;;;;;17.18;67.84;101790.03;5047475;28;20473;-76
2022/09/05 03:05:48;;;;;;;11.07;9.98;;;;;;;17.18;67.96;101797.88;5038121;28;20103;-76
2022/09/05 03:08:31;;;;;;;;;;;;;;;17.40;66.53;101791.44;5029623;28;20439;-76
2022/09/05 03:11:19;;;;;;;11.50;10.30;;;;;;;17.22;67.71;101795.81;5038146;28;19920;-76
2022/09/05 03:14:22;;;;;;;10.90;9.80;;;;;;;17.17;67.93;101790.19;5048412;28;20041;-76
2022/09/05 03:17:09;;;;;;;12.38;11.07;;;;;;;17.15;67.77;101786.88;5018422;28;20061;-76
2022/09/05 03:19:56;;;;;;;12.75;11.45;;;;;;;17.02;69.07;101791.59;5027422;28;20063;-76
2022/09/05 03:22:43;;;;;;;14.10;11.35;;;;;;;16.89;69.47;101790.13;5034445;28;20028;-76
2022/09/05 03:25:11;;;;;;;13.10;11.63;;;;;;;16.76;70.34;101794.88;5041821;28;20416;-76
2022/09/05 03:28:03;;;;;;;13.10;11.80;;;;;;;16.83;69.77;101798.56;5044386;28;20028;-76
2022/09/05 03:30:47;;;;;;;13.23;11.95;;;;;;;16.75;70.26;101801.09;5028559;28;20037;-76
2022/09/05 03:33:51;;;;;;;13.23;11.57;;;;;;;16.79;69.36;101799.00;5047179;28;20024;-76
2022/09/05 03:36:25;;;;;;;14.27;12.85;;;;;;;16.64;70.36;101798.59;5047227;28;20032;-76
2022/09/05 03:39:26;;;;;;;13.75;12.32;;;;;;;16.61;70.38;101796.25;5030142;28;20495;-77
2022/09/05 03:42:34;;;;;;;14.07;12.68;;;;;;;16.67;70.34;101804.34;5021302;28;20431;-76
2022/09/05 03:45:18;;;;;;;13.83;12.53;;;;;;;16.44;71.17;101803.84;5047494;28;20591;-76
2022/09/05 03:48:07;;;;;;;14.23;12.88;;;;;;;16.39;71.51;101798.19;5040223;28;20403;-76
2022/09/05 03:50:48;;;;;;;14.90;13.40;;;;;;;16.39;71.46;101800.81;5031920;28;20032;-76
2022/09/05 03:53:35;;;;;;;14.95;13.55;;;;;;;16.34;72.22;101803.00;5014390;28;20029;-80
2022/09/05 03:56:12;;;;;;;15.18;13.50;;;;;;;16.58;70.90;101804.41;5039251;28;20032;-76
2022/09/05 03:59:15;;;;;;;14.48;13.18;;;;;;;16.46;71.51;101794.06;5038954;28;20029;-76
2022/09/05 04:01:46;;;;;;;15.23;13.70;;;;;;;16.40;71.74;101794.63;4965593;28;20052;-76
2022/09/05 04:04:41;;;;;;;14.95;13.55;;;;;;;16.57;70.75;101802.72;4966953;28;20031;-76
2022/09/05 04:07:31;;;;;;;16.10;14.50;;;;;;;16.49;71.42;101800.00;4961891;28;20038;-76
2022/09/05 04:09:56;;;;;;;15.35;13.95;;;;;;;16.31;72.13;101792.84;4964069;28;20274;-76
2022/09/05 04:12:30;;;;;;;15.93;14.32;;;;;;;16.36;71.99;101801.09;4965182;28;20086;-76
2022/09/05 04:14:58;;;;;;;16.13;14.57;;;;;;;16.31;72.27;101800.69;4963180;28;20519;-75
2022/09/05 04:17:39;;;;;;;16.73;15.27;;;;;;;16.28;72.37;101806.19;4954784;28;20062;-76
2022/09/05 04:20:13;;;;;;;17.02;14.85;;;;;;;16.30;72.35;101796.44;4959256;28;20035;-76
2022/09/05 04:23:11;;;;;;;16.48;14.98;;;;;;;16.30;71.90;101806.91;4960063;28;20041;-76
2022/09/05 04:26:15;;;;;;;16.30;14.70;;;;;;;16.37;71.45;101797.50;4961978;28;20074;-76
2022/09/05 04:29:34;;;;;;;17.02;15.23;;;;;;;16.34;71.63;101803.00;4943199;28;20034;-76
2022/09/05 04:32:50;;;;;;;16.35;14.75;;;;;;;16.35;71.77;101804.69;4879387;29;20132;-76
2022/09/05 04:35:22;;;;;;;16.10;14.60;;;;;;;16.13;73.11;101804.97;4858367;29;20453;-76
2022/09/05 04:38:09;;;;;;;16.20;14.50;;;;;;;16.25;72.58;101806.47;4914084;29;20088;-76
2022/09/05 04:40:40;;;;;;;16.80;15.10;;;;;;;16.14;72.63;101817.09;4944887;28;20191;-76
2022/09/05 04:43:30;;;;;;;16.33;14.60;;;;;;;16.18;72.67;101810.63;4945374;28;20492;-76
2022/09/05 04:46:11;;;;;;;16.13;14.52;;;;;;;16.11;73.46;101812.13;4944136;28;20031;-76
2022/09/05 04:48:42;;;;;;;16.42;14.93;;;;;;;16.05;73.55;101817.91;4923483;29;20082;-76
2022/09/05 04:51:23;;;;;;;16.60;14.90;;;;;;;16.10;73.15;101811.28;4940601;28;20034;-77
2022/09/05 04:54:13;;;;;;;16.88;15.23;;;;;;;16.12;73.09;101808.56;4946339;28;20035;-75
2022/09/05 04:56:45;;;;;;;16.52;15.10;;;;;;;16.13;73.18;101815.44;4940945;29;20161;-76
2022/09/05 04:59:22;;;;;;;16.77;15.10;;;;;;;16.09;73.46;101814.06;4941581;29;20060;-75
2022/09/05 05:01:57;;;;;;;16.25;14.75;;;;;;;16.15;73.54;101808.25;4945141;28;20043;-76
2022/09/05 05:04:26;;;;;;;16.73;15.13;;;;;;;16.07;73.62;101806.34;4935142;29;20108;-76
2022/09/05 05:07:15;;;;;;;16.00;14.50;;;;;;;16.17;73.89;101814.19;4946452;28;20074;-75
2022/09/05 05:09:49;;;;;;;17.02;15.25;;;;;;;16.06;74.46;101820.41;5045816;28;20063;-76
2022/09/05 05:12:40;;;;;;;16.63;15.05;;;;;;;16.15;74.03;101826.59;5045850;28;20047;-76
2022/09/05 05:15:12;;;;;;;16.73;15.13;;;;;;;16.03;74.82;101812.81;5033045;28;20040;-77
2022/09/05 05:17:51;;;;;;;16.35;14.85;;;;;;;16.05;74.50;101823.13;5030893;28;20033;-76
2022/09/05 05:20:33;;;;;;;17.50;15.80;;;;;;;15.99;74.61;101829.72;5034949;28;20506;-76
2022/09/05 05:23:08;;;;;;;16.38;14.65;;;;;;;15.97;75.06;101820.38;5042404;28;20025;-76
2022/09/05 05:25:50;;;;;;;16.20;14.65;;;;;;;16.06;74.86;101817.78;5032776;28;20037;-76
2022/09/05 05:28:40;;;;;;;17.77;15.95;;;;;;;16.11;73.86;101817.34;5038554;28;20115;-76
2022/09/05 05:31:12;;;;;;;16.85;15.25;;;;;;;16.03;75.03;101819.84;5045366;28;20043;-76
2022/09/05 05:33:39;;;;;;;17.83;16.02;;;;;;;15.99;74.99;101814.03;5028769;28;20029;-76
2022/09/05 05:36:08;;;;;;;17.35;15.65;;;;;;;16.05;75.25;101823.13;5030903;28;20607;-76
2022/09/05 05:38:44;;;;;;;18.40;15.60;;;;;;;16.11;75.23;101822.56;5041054;28;20477;-77
2022/09/05 05:41:20;;;;;;;17.95;15.95;;;;;;;16.15;75.20;101818.75;5043449;28;20051;-76
2022/09/05 05:43:46;;;;;;;17.23;15.48;;;;;;;16.16;75.00;101817.75;5036503;28;20020;-76
2022/09/05 05:46:24;;;;;;;18.15;16.40;;;;;;;16.10;75.40;101808.66;5046507;28;20025;-76
2022/09/05 05:48:53;;;;;;;18.85;16.92;;;;;;;16.17;75.39;101811.56;5044006;28;20036;-76
2022/09/05 05:51:37;;;;;;;17.70;16.10;;;;;;;16.29;75.28;101826.19;5031984;28;20033;-76
2022/09/05 05:54:20;;;;;;;16.98;15.27;;;;;;;16.39;74.83;101820.94;5038220;28;20021;-76
2022/09/05 05:57:04;;;;;;;18.00;16.20;;;;;;;16.41;74.73;101819.84;5039336;28;20057;-76
2022/09/05 05:59:48;;;;;;;17.65;15.95;;;;;;;16.42;74.45;101811.03;5042415;28;20029;-76
2022/09/05 06:02:51;;;;;;;17.17;15.45;;;;;;;16.59;73.67;101827.00;5036406;28;20070;-76
2022/09/05 06:05:29;;;;;;;17.55;15.60;;;;;;;16.64;73.80;101830.84;5041365;28;21067;-76
2022/09/05 06:08:18;;;;;;;17.35;15.75;;;;;;;16.71;73.35;101831.13;5034784;28;20029;-76
2022/09/05 06:11:20;;;;;;;17.42;15.73;;;;;;;16.80;73.36;101830.28;5037262;28;20028;-76
2022/09/05 06:14:16;;;;;;;18.08;16.38;;;;;;;16.86;72.77;101834.97;5049172;28;20079;-76
2022/09/05 06:16:53;;;;;;;17.52;15.73;;;;;;;16.93;72.82;101838.69;5036197;28;20050;-76
2022/09/05 06:19:39;;;;;;;18.30;16.63;;;;;;;17.01;73.12;101842.38;5042112;28;20029;-76
2022/09/05 06:22:26;;;;;;;18.98;17.17;;;;;;;17.09;73.08;101845.09;5040523;28;20033;-77
2022/09/05 06:25:19;;;;;;;18.42;16.73;;;;;;;17.20;73.40;101863.28;5029080;28;20025;-76
2022/09/05 06:28:06;;;;;;;18.20;16.35;;;;;;;17.23;73.80;101857.75;5046794;28;20441;-76
2022/09/05 06:30:42;;;;;;;18.35;16.55;;;;;;;17.27;73.41;101855.69;5037718;28;20175;-76
2022/09/05 06:33:41;;;;;;;18.88;16.92;;;;;;;17.39;72.93;101862.41;5046088;28;20111;-77
2022/09/05 06:37:09;;;;;;;19.13;17.00;;;;;;;17.46;72.83;101859.06;5031363;28;20033;-77
2022/09/05 06:39:40;;;;;;;19.70;17.83;;;;;;;17.51;72.95;101869.94;4946409;29;20047;-77
2022/09/05 06:42:40;;;;;;;19.20;17.23;;;;;;;17.57;72.97;101867.72;4948194;28;20030;-78
2022/09/05 06:45:14;;;;;;;18.83;17.02;;;;;;;17.67;72.91;101876.38;4949112;29;20039;-76
2022/09/05 06:47:43;;;;;;;18.67;16.75;;;;;;;17.72;72.25;101868.88;4960424;28;20531;-77
2022/09/05 06:50:20;;;;;;;19.15;16.35;;;;;;;17.79;72.23;101859.47;4948870;29;20674;-77
2022/09/05 06:53:04;;;;;;;19.63;17.42;;;;;;;17.82;72.47;101856.53;4951411;28;20027;-76
2022/09/05 06:55:36;;;;;;;18.17;16.33;;;;;;;17.96;71.88;101866.56;4947126;28;20050;-77
2022/09/05 06:58:26;;;;;;;17.27;15.45;;;;;;;18.08;71.43;101866.34;4932556;29;20039;-77
2022/09/05 07:00:54;;;;;;;18.25;16.40;;;;;;;18.16;71.73;101861.16;4947201;29;20047;-76
2022/09/05 07:03:47;;;;;;;17.95;16.15;;;;;;;18.26;71.60;101861.91;4947485;28;20035;-77
2022/09/05 07:06:22;;;;;;;18.88;16.27;;;;;;;18.34;71.26;101848.84;4947119;29;20426;-76
2022/09/05 07:08:52;;;;;;;17.88;15.98;;;;;;;18.48;70.49;101860.66;4951622;28;20500;-77
2022/09/05 07:11:23;;;;;;;17.95;16.25;;;;;;;18.58;70.73;101862.22;4944225;28;20049;-76
2022/09/05 07:14:13;;;;;;;17.02;15.38;;;;;;;18.70;70.58;101859.38;5003957;28;20055;-77
2022/09/05 07:16:48;;;;;;;18.05;16.20;;;;;;;18.79;69.94;101848.75;5028168;28;20026;-76
2022/09/05 07:19:26;;;;;;;17.38;15.43;;;;;;;18.92;69.87;101863.28;5027875;28;20030;-77
2022/09/05 07:22:14;;;;;;;17.25;15.45;;;;;;;19.01;69.15;101857.94;5028664;28;20053;-76
2022/09/05 07:24:44;;;;;;;16.93;15.07;;;;;;;19.08;68.81;101858.13;5026213;28;20025;-76
2022/09/05 07:27:28;;;;;;;17.50;15.70;;;;;;;19.21;68.73;101862.97;5026624;28;20025;-77
2022/09/05 07:29:57;;;;;;;15.82;14.25;;;;;;;19.32;68.22;101865.31;5027969;28;20064;-77
2022/09/05 07:32:23;;;;;;;16.52;14.90;;;;;;;19.43;67.58;101872.94;5020519;28;20037;-77
2022/09/05 07:34:50;;;;;;;17.08;13.98;;;;;;;19.58;67.47;101866.13;5026372;28;20503;-77
2022/09/05 07:37:27;;;;;;;15.53;13.93;;;;;;;19.67;67.40;101859.09;5028191;28;20042;-77
2022/09/05 07:39:57;;;;;;;16.20;13.77;;;;;;;19.77;67.32;101864.22;5028153;28;20287;-76
2022/09/05 07:42:40;;;;;;;15.57;13.75;;;;;;;19.84;67.08;101860.81;5027528;28;20103;-77
2022/09/05 07:45:12;;;;;;;15.75;12.60;;;;;;;19.95;66.24;101859.66;5017019;28;20453;-77
2022/09/05 07:47:52;;;;;;;16.55;12.48;;;;;;;20.10;65.83;101854.59;5027658;28;20033;-77
2022/09/05 07:50:17;;;;;;;14.73;11.77;;;;;;;20.24;65.66;101861.00;5020534;28;20041;-76
2022/09/05 07:52:44;;;;;;;17.77;12.45;;;;;;;20.37;65.41;101866.66;5022853;28;20076;-77
2022/09/05 07:55:27;;;;;;;12.68;11.35;;;;;;;20.43;64.17;101872.06;5019887;28;20029;-77
2022/09/05 07:57:56;;;;;;;13.80;12.40;;;;;;;20.51;64.15;101868.63;5013608;28;20025;-76
2022/09/05 08:00:24;;;;;;;12.60;11.40;;;;;;;20.71;63.15;101884.13;5022673;28;20025;-77
2022/09/05 08:02:50;;;;;;;13.75;12.35;;;;;;;20.76;61.96;101876.53;5028068;28;20025;-77
2022/09/05 08:05:18;;;;;;;13.00;11.40;;;;;;;20.84;61.76;101882.63;5025388;28;20025;-76
2022/09/05 08:07:50;;;;;;;13.88;11.55;;;;;;;21.00;61.19;101879.16;5027573;28;20472;-77
2022/09/05 08:10:32;;;;;;;15.55;12.85;;;;;;;21.09;61.65;101883.41;5023288;28;20033;-77
2022/09/05 08:13:11;;;;;;;15.07;12.73;;;;;;;21.23;61.32;101889.00;5025672;28;20558;-77
2022/09/05 08:15:42;;;;;;;14.45;12.75;;;;;;;21.31;59.93;101886.34;5029134;28;20115;-77
2022/09/05 08:18:29;;;;;;;15.55;13.45;;;;;;;21.45;60.13;101883.84;5044284;28;20346;-77
2022/09/05 08:21:02;;;;;;;14.05;12.65;;;;;;;21.59;58.63;101882.28;5043165;28;20033;-76
2022/09/05 08:23:55;;;;;;;13.60;12.20;;;;;;;21.71;59.22;101882.72;5046157;28;20059;-77
2022/09/05 08:26:29;;;;;;;13.07;11.77;;;;;;;21.92;57.63;101887.41;5041163;28;20025;-77
2022/09/05 08:29:19;;;;;;;13.10;11.80;;;;;;;22.01;57.56;101892.44;5044074;28;20033;-77
2022/09/05 08:31:51;;;;;;;14.85;12.18;;;;;;;22.09;55.87;101886.31;5039700;28;20025;-77
2022/09/05 08:34:23;;;;;;;14.43;11.73;;;;;;;22.17;56.06;101883.63;5034384;28;20429;-77
2022/09/05 08:36:51;;;;;;;14.25;12.38;;;;;;;22.32;55.23;101888.19;5028367;28;20041;-77
2022/09/05 08:39:22;;;;;;;13.00;11.50;;;;;;;22.41;55.45;101880.00;5037312;28;20037;-77
2022/09/05 08:42:08;;;;;;;12.82;11.32;;;;;;;22.47;55.60;101883.75;5039716;28;20480;-77
2022/09/05 08:44:46;;;;;;;13.10;11.57;;;;;;;22.61;54.98;101885.63;5027046;28;20033;-77
2022/09/05 08:47:32;;;;;;;14.65;11.45;;;;;;;22.73;55.96;101888.66;5029292;28;20029;-77
2022/09/05 08:50:18;;;;;;;15.45;11.90;;;;;;;22.82;54.37;101881.47;5037865;28;20037;-77
2022/09/05 08:53:11;;;;;;;12.77;10.93;;;;;;;23.04;54.99;101891.19;5040314;28;20108;-77
2022/09/05 08:56:03;;;;;;;12.52;11.20;;;;;;;23.13;53.59;101879.53;5041992;28;20063;-76
2022/09/05 08:59:00;;;;;;;15.55;11.38;;;;;;;23.22;53.51;101883.72;5033841;28;20041;-77
2022/09/05 09:01:34;;;;;;;13.55;10.57;;;;;;;23.44;52.70;101875.84;5019574;28;20040;-77
2022/09/05 09:04:21;;;;;;;11.85;10.57;;;;;;;23.49;52.13;101876.13;5028687;28;20021;-77
2022/09/05 09:07:07;;;;;;;12.50;9.55;;;;;;;23.57;52.09;101865.44;5046030;28;20064;-77
2022/09/05 09:09:44;;;;;;;11.13;8.20;;;;;;;23.75;50.08;101871.19;5038638;28;20369;-77
2022/09/05 09:12:12;;;;;;;10.32;8.23;;;;;;;23.96;49.21;101861.59;5028656;28;20028;-77
2022/09/05 09:14:58;;;;;;;11.40;7.05;;;;;;;24.26;48.39;101855.19;5045942;28;20044;-77
2022/09/05 09:17:44;;;;;;;8.65;6.60;;;;;;;24.22;49.66;101853.91;5046165;28;20043;-77
2022/09/05 09:20:38;;;;;;;11.93;7.40;;;;;;;24.28;48.94;101847.84;5044145;28;20111;-77
2022/09/05 09:23:22;;;;;;;8.57;5.72;;;;;;;24.38;47.12;101842.28;5046103;28;20071;-77
2022/09/05 09:26:09;;;;;;;8.85;5.38;;;;;;;24.51;47.20;101852.16;5044805;28;20020;-77
2022/09/05 09:29:02;;;;;;;8.63;5.22;;;;;;;24.61;45.99;101857.97;5039172;28;20447;-77
2022/09/05 09:31:49;;;;;;;8.02;4.78;;;;;;;24.79;45.35;101854.81;5038671;28;20030;-77
2022/09/05 09:34:24;;;;;;;9.55;4.88;;;;;;;24.95;46.07;101853.69;5044210;28;20033;-77
2022/09/05 09:37:08;;;;;;;8.43;5.78;;;;;;;25.05;46.77;101848.81;5046308;28;20023;-76
2022/09/05 09:39:36;;;;;;;10.82;5.93;;;;;;;25.08;44.87;101853.78;5027562;28;20039;-76
2022/09/05 09:42:46;;;;;;;9.93;6.18;;;;;;;25.22;46.98;101852.81;5040973;28;20075;-77
2022/09/05 09:45:14;;;;;;;11.95;7.60;;;;;;;25.25;45.24;101847.13;5029821;28;20116;-77
2022/09/05 09:48:16;;;;;;;8.95;5.50;;;;;;;25.43;46.26;101855.38;5049819;28;20033;-77
2022/09/05 09:51:00;;;;;;;8.25;4.90;;;;;;;25.58;44.09;101843.81;5049027;28;20050;-77
2022/09/05 09:53:32;;;;;;;9.65;5.55;;;;;;;25.79;43.13;101853.47;5049961;28;20171;-77
2022/09/05 09:56:35;;;;;;;7.93;5.05;;;;;;;25.79;45.48;101841.00;5031621;28;20056;-77
2022/09/05 09:59:03;;;;;;;8.18;5.90;;;;;;;25.87;43.91;101843.50;5020327;28;20370;-77
2022/09/05 10:01:35;;;;;;;;;;;;;;;25.92;45.51;101846.38;5049955;28;20550;-77
2022/09/05 10:04:18;;;;;;;8.02;3.70;;;;;;;26.01;43.44;101830.22;5049329;28;19912;-77
2022/09/05 10:06:55;;;;;;;8.55;4.68;;;;;;;26.21;42.10;101839.84;5049863;28;20048;-77
2022/09/05 10:09:49;;;;;;;7.40;3.63;;;;;;;26.24;42.09;101833.28;5049211;28;20067;-77
2022/09/05 10:12:29;;;;;;;8.32;3.55;;;;;;;26.37;42.73;101827.97;5028865;28;20044;-77
2022/09/05 10:15:01;;;;;;;6.50;3.00;;;;;;;26.47;40.67;101827.59;5046692;28;20087;-77
2022/09/05 10:18:05;;;;;;;5.55;3.20;;;;;;;26.60;41.21;101829.41;5049465;28;20040;-77
2022/09/05 10:20:38;;;;;;;6.53;2.67;;;;;;;26.62;39.51;101822.06;5040711;28;20049;-77
2022/09/05 10:23:06;;;;;;;4.90;2.40;;;;;;;26.65;39.15;101814.47;5043365;28;20477;-77
2022/09/05 10:25:53;;;;;;;8.27;2.80;;;;;;;26.76;39.05;101810.34;5037157;28;20036;-77
2022/09/05 10:28:42;;;;;;;6.27;2.50;;;;;;;26.85;39.55;101809.09;5037160;28;20028;-77
2022/09/05 10:31:21;;;;;;;4.75;2.25;;;;;;;27.02;37.70;101803.31;5043917;28;20021;-77
2022/09/05 10:34:21;;;;;;;7.38;2.20;;;;;;;27.10;38.65;101805.78;5045677;28;20041;-77
2022/09/05 10:36:57;;;;;;;5.97;2.45;;;;;;;27.11;36.95;101802.06;5049097;28;20031;-77
2022/09/05 10:39:28;;;;;;;6.05;2.67;;;;;;;27.20;37.43;101798.16;5048433;28;20040;-77
2022/09/05 10:41:58;;;;;;;5.75;2.20;;;;;;;27.29;36.54;101791.53;5049488;28;20139;-77
2022/09/05 10:44:40;;;;;;;7.20;2.30;;;;;;;27.44;37.28;101802.75;5047938;28;20503;-77
2022/09/05 10:47:22;;;;;;;6.55;2.33;;;;;;;27.57;36.66;101795.69;5049216;28;20108;-77
2022/09/05 10:49:49;;;;;;;3.75;1.75;;;;;;;27.69;34.99;101796.66;5041969;28;20025;-77
2022/09/05 10:52:56;;;;;;;3.97;1.90;;;;;;;27.74;34.02;101791.53;5047110;28;20036;-77
2022/09/05 10:55:48;;;;;;;3.28;2.03;;;;;;;27.88;35.04;101798.41;5048148;28;20116;-77
2022/09/05 10:58:31;;;;;;;3.15;1.63;;;;;;;28.09;34.52;101788.38;5048698;28;20421;-78
2022/09/05 11:01:05;;;;;;;3.83;1.80;;;;;;;28.11;32.60;101791.66;5048566;28;20024;-77
2022/09/05 11:03:54;;;;;;;2.88;1.60;;;;;;;28.19;34.75;101788.72;5046878;28;20028;-77
2022/09/05 11:06:47;;;;;;;3.28;1.65;;;;;;;28.48;33.67;101788.06;5048610;28;20060;-77
2022/09/05 11:09:34;;;;;;;2.00;1.63;;;;;;;28.53;32.33;101790.88;5037083;28;20064;-77
2022/09/05 11:12:23;;;;;;;4.65;1.80;;;;;;;28.65;33.86;101792.81;5047210;28;20147;-77
2022/09/05 11:14:52;;;;;;;2.85;1.80;;;;;;;28.43;31.69;101790.56;5045521;28;20060;-77
2022/09/05 11:17:39;;;;;;;4.10;1.70;;;;;;;28.70;33.23;101784.97;5048153;28;20032;-77
2022/09/05 11:20:17;;;;;;;4.88;1.60;;;;;;;28.70;32.24;101783.09;5044938;28;20028;-77
2022/09/05 11:22:46;;;;;;;4.60;1.80;;;;;;;28.88;31.58;101782.28;5043322;28;20488;-77
2022/09/05 11:25:26;;;;;;;4.97;2.03;;;;;;;28.89;32.57;101778.56;5027750;28;20036;-77
2022/09/05 11:27:54;;;;;;;3.90;1.73;;;;;;;28.85;31.10;101772.06;5042946;28;20063;-77
2022/09/05 11:30:32;;;;;;;4.25;1.80;;;;;;;29.13;31.31;101766.16;5028731;28;20036;-77
2022/09/05 11:33:08;;;;;;;4.65;1.85;;;;;;;29.29;31.41;101778.09;5040930;28;20064;-77
2022/09/05 11:35:47;;;;;;;3.08;1.70;;;;;;;29.19;31.00;101761.78;5019904;28;20551;-77
2022/09/05 11:38:37;;;;;;;6.65;2.05;;;;;;;29.31;32.02;101782.19;5047712;28;20029;-77
2022/09/05 11:41:58;;;;;;;4.47;1.50;;;;;;;29.45;32.93;101772.13;5047813;28;20150;-77
2022/09/05 11:44:32;;;;;;;4.97;1.50;;;;;;;29.53;31.49;101779.00;4940849;29;20050;-77
2022/09/05 11:47:16;;;;;;;3.90;2.00;;;;;;;29.45;30.71;101772.13;4945735;28;20039;-77
2022/09/05 11:49:53;;;;;;;3.42;1.70;;;;;;;29.62;30.48;101773.13;4935457;29;20110;-77
2022/09/05 11:52:52;;;;;;;4.32;1.88;;;;;;;29.71;31.88;101764.78;4946869;29;20143;-77
2022/09/05 11:55:38;;;;;;;4.25;2.10;;;;;;;29.78;31.22;101760.13;4940907;29;20039;-77
2022/09/05 11:58:28;;;;;;;4.68;2.08;;;;;;;29.70;32.18;101763.13;4941898;29;20050;-77
2022/09/05 12:01:18;;;;;;;3.95;1.75;;;;;;;29.89;30.99;101762.03;4930942;29;20074;-77
2022/09/05 12:04:12;;;;;;;3.00;1.70;;;;;;;29.86;30.25;101765.13;4946582;28;20082;-77
2022/09/05 12:06:43;;;;;;;2.28;1.50;;;;;;;30.04;29.98;101761.53;4946934;28;20031;-77
2022/09/05 12:09:14;;;;;;;3.20;1.73;;;;;;;29.93;29.60;101763.16;4943195;29;20066;-77
2022/09/05 12:12:05;;;;;;;3.30;1.50;;;;;;;30.03;30.31;101759.91;4946315;29;20031;-77
2022/09/05 12:15:02;;;;;;;4.07;1.85;;;;;;;29.78;30.43;101754.78;4964951;28;20139;-77
2022/09/05 12:17:46;;;;;;;;;;;;;;;30.00;31.67;101753.19;5042536;28;20373;-77
2022/09/05 12:20:20;;;;;;;3.47;1.70;;;;;;;29.97;30.09;101753.63;5022051;28;19958;-77
2022/09/05 12:23:09;;;;;;;3.70;1.52;;;;;;;30.17;30.85;101752.53;5046495;28;20025;-77
2022/09/05 12:26:01;;;;;;;5.07;1.80;;;;;;;30.04;29.75;101745.50;5046765;28;20032;-77
2022/09/05 12:28:45;;;;;;;4.13;1.77;;;;;;;30.24;30.09;101747.88;5033237;28;20063;-77